createdAt,value
2023-01-28T00:01:34.621Z,102682.84
2023-01-28T00:04:02.488Z,102680.34
2023-01-28T00:06:30.192Z,102674.16
2023-01-28T00:08:58.006Z,102673.41
2023-01-28T00:11:25.793Z,102673.28
2023-01-28T00:13:55.694Z,102667.78
2023-01-28T00:16:23.615Z,102662.44
2023-01-28T00:18:51.816Z,102664.72
2023-01-28T00:21:19.901Z,102674.97
2023-01-28T00:23:52.843Z,102682.22
2023-01-28T00:26:20.668Z,102676.88
2023-01-28T00:28:48.993Z,102673.88
2023-01-28T00:31:20.559Z,102674.06
2023-01-28T00:33:50.782Z,102677.69
2023-01-28T00:36:20.811Z,102678.41
2023-01-28T00:38:51.626Z,102680.19
2023-01-28T00:41:22.402Z,102680.06
2023-01-28T00:43:50.859Z,102674.75
2023-01-28T00:46:21.544Z,102674.06
2023-01-28T00:48:50.008Z,102675.97
2023-01-28T00:51:20.052Z,102679.97
2023-01-28T00:53:48.399Z,102677.53
2023-01-28T00:56:17.902Z,102684.44
2023-01-28T00:58:46.066Z,102680.66
2023-01-28T01:01:16.741Z,102679.91
2023-01-28T01:03:45.995Z,102689.44
2023-01-28T01:06:17.392Z,102693.50
2023-01-28T01:08:50.088Z,102692.38
2023-01-28T01:11:18.849Z,102684.06
2023-01-28T01:13:50.678Z,102691.78
2023-01-28T01:16:18.391Z,102689.72
2023-01-28T01:18:47.549Z,102689.72
2023-01-28T01:21:17.647Z,102695.31
2023-01-28T01:23:45.772Z,102691.78
2023-01-28T01:26:14.622Z,102695.38
2023-01-28T01:28:42.710Z,102696.53
2023-01-28T01:31:14.755Z,102697.44
2023-01-28T01:33:43.090Z,102695.16
2023-01-28T01:36:13.766Z,102711.03
2023-01-28T01:38:42.505Z,102711.75
2023-01-28T01:41:24.690Z,102708.91
2023-01-28T01:43:54.865Z,102714.19
2023-01-28T01:46:27.274Z,102707.88
2023-01-28T01:48:58.448Z,102707.28
2023-01-28T01:51:32.446Z,102709.94
2023-01-28T01:54:01.302Z,102711.91
2023-01-28T01:56:34.362Z,102720.00
2023-01-28T01:59:03.399Z,102720.16
2023-01-28T02:01:32.603Z,102716.75
2023-01-28T02:04:07.148Z,102722.91
2023-01-28T02:06:37.831Z,102717.75
2023-01-28T02:09:09.113Z,102724.53
2023-01-28T02:11:37.814Z,102723.56
2023-01-28T02:14:07.823Z,102719.91
2023-01-28T02:16:35.780Z,102729.69
2023-01-28T02:19:03.623Z,102733.38
2023-01-28T02:22:02.510Z,102737.00
2023-01-28T02:24:56.735Z,102731.94
2023-01-28T02:27:32.451Z,102720.56
2023-01-28T02:30:08.795Z,102725.78
2023-01-28T02:32:44.784Z,102723.28
2023-01-28T02:35:17.725Z,102720.94
2023-01-28T02:37:48.839Z,102722.00
2023-01-28T02:40:23.669Z,102714.16
2023-01-28T02:42:51.502Z,102730.47
2023-01-28T02:45:23.925Z,102725.31
2023-01-28T02:47:57.665Z,102717.53
2023-01-28T02:50:32.613Z,102714.97
2023-01-28T02:53:35.973Z,102711.34
2023-01-28T02:56:10.025Z,102721.00
2023-01-28T02:58:43.796Z,102717.31
2023-01-28T03:01:20.312Z,102713.75
2023-01-28T03:04:00.492Z,102716.31
2023-01-28T03:06:34.472Z,102707.47
2023-01-28T03:09:24.541Z,102709.31
2023-01-28T03:12:13.754Z,102714.00
2023-01-28T03:15:00.456Z,102707.31
2023-01-28T03:17:52.677Z,102710.75
2023-01-28T03:20:40.307Z,102712.31
2023-01-28T03:23:30.360Z,102708.31
2023-01-28T03:26:20.145Z,102710.13
2023-01-28T03:29:08.013Z,102707.69
2023-01-28T03:31:55.052Z,102704.91
2023-01-28T03:34:41.654Z,102709.97
2023-01-28T03:37:10.163Z,102714.59
2023-01-28T03:39:38.959Z,102719.97
2023-01-28T03:42:09.484Z,102717.97
2023-01-28T03:44:52.135Z,102719.72
2023-01-28T03:47:20.115Z,102725.84
2023-01-28T03:49:51.222Z,102724.25
2023-01-28T03:52:21.004Z,102721.94
2023-01-28T03:54:49.479Z,102723.72
2023-01-28T03:57:18.169Z,102728.72
2023-01-28T03:59:45.912Z,102729.00
2023-01-28T04:02:13.840Z,102729.81
2023-01-28T04:04:42.337Z,102724.16
2023-01-28T04:07:15.434Z,102724.97
2023-01-28T04:09:44.106Z,102725.22
2023-01-28T04:12:11.970Z,102735.19
2023-01-28T04:14:40.656Z,102733.28
2023-01-28T04:17:10.592Z,102734.38
2023-01-28T04:19:38.582Z,102738.16
2023-01-28T04:22:08.404Z,102733.69
2023-01-28T04:24:37.500Z,102738.59
2023-01-28T04:27:05.337Z,102735.19
2023-01-28T04:29:33.037Z,102736.94
2023-01-28T04:32:00.690Z,102734.16
2023-01-28T04:34:28.361Z,102742.06
2023-01-28T04:36:56.089Z,102741.75
2023-01-28T04:39:23.854Z,102739.34
2023-01-28T04:41:52.962Z,102738.50
2023-01-28T04:44:20.686Z,102730.34
2023-01-28T04:46:48.426Z,102737.03
2023-01-28T04:49:16.096Z,102736.16
2023-01-28T04:51:43.776Z,102732.53
2023-01-28T04:54:11.483Z,102735.00
2023-01-28T04:56:39.231Z,102744.66
2023-01-28T04:59:08.379Z,102738.84
2023-01-28T05:01:36.100Z,102738.91
2023-01-28T05:04:05.706Z,102738.91
2023-01-28T05:06:33.524Z,102730.31
2023-01-28T05:09:01.697Z,102736.28
2023-01-28T05:11:29.435Z,102737.00
2023-01-28T05:13:57.135Z,102730.56
2023-01-28T05:16:26.398Z,102732.00
2023-01-28T05:18:54.106Z,102730.41
2023-01-28T05:21:21.860Z,102733.56
2023-01-28T05:23:49.559Z,102731.97
2023-01-28T05:26:17.192Z,102737.41
2023-01-28T05:28:44.875Z,102740.91
2023-01-28T05:31:12.883Z,102741.13
2023-01-28T05:33:41.972Z,102738.56
2023-01-28T05:36:09.755Z,102737.25
2023-01-28T05:38:37.458Z,102746.94
2023-01-28T05:41:05.384Z,102744.78
2023-01-28T05:43:33.067Z,102752.44
2023-01-28T05:46:00.807Z,102750.72
2023-01-28T05:48:28.611Z,102768.06
2023-01-28T05:50:58.043Z,102765.50
2023-01-28T05:53:25.765Z,102757.66
2023-01-28T05:55:54.535Z,102762.63
2023-01-28T05:58:22.668Z,102761.88
2023-01-28T06:00:50.443Z,102765.50
2023-01-28T06:03:18.198Z,102757.66
2023-01-28T06:05:45.920Z,102762.34
2023-01-28T06:08:15.074Z,102755.00
2023-01-28T06:10:42.802Z,102767.00
2023-01-28T06:13:10.452Z,102762.03
2023-01-28T06:15:38.309Z,102761.88
2023-01-28T06:18:06.081Z,102758.44
2023-01-28T06:20:33.794Z,102752.38
2023-01-28T06:23:01.483Z,102751.41
2023-01-28T06:25:30.728Z,102762.13
2023-01-28T06:27:58.495Z,102770.13
2023-01-28T06:30:26.209Z,102778.78
2023-01-28T06:32:57.443Z,102774.78
2023-01-28T06:35:25.792Z,102768.72
2023-01-28T06:37:53.952Z,102763.28
2023-01-28T06:40:22.906Z,102764.78
2023-01-28T06:42:52.023Z,102770.72
2023-01-28T06:45:19.724Z,102763.47
2023-01-28T06:47:47.452Z,102771.06
2023-01-28T06:50:15.410Z,102772.94
2023-01-28T06:52:43.276Z,102777.50
2023-01-28T06:55:11.118Z,102784.56
2023-01-28T06:57:39.601Z,102786.09
2023-01-28T07:00:11.308Z,102780.13
2023-01-28T07:02:39.115Z,102783.50
2023-01-28T07:05:07.765Z,102783.78
2023-01-28T07:07:35.444Z,102780.28
2023-01-28T07:10:03.164Z,102792.44
2023-01-28T07:12:30.909Z,102785.47
2023-01-28T07:14:58.581Z,102782.13
2023-01-28T07:17:27.711Z,102782.03
2023-01-28T07:19:55.441Z,102781.13
2023-01-28T07:22:23.153Z,102776.75
2023-01-28T07:24:50.833Z,102785.66
2023-01-28T07:27:18.541Z,102779.31
2023-01-28T07:29:46.352Z,102781.94
2023-01-28T07:32:14.073Z,102784.16
2023-01-28T07:34:43.157Z,102789.28
2023-01-28T07:37:11.112Z,102785.91
2023-01-28T07:39:38.840Z,102777.50
2023-01-28T07:42:06.822Z,102784.84
2023-01-28T07:44:35.795Z,102786.72
2023-01-28T07:47:04.019Z,102800.13
2023-01-28T07:49:32.455Z,102799.19
2023-01-28T07:52:01.631Z,102807.09
2023-01-28T07:54:29.369Z,102815.34
2023-01-28T07:56:57.041Z,102830.56
2023-01-28T07:59:24.714Z,102839.13
2023-01-28T08:01:54.942Z,102834.72
2023-01-28T08:04:23.055Z,102821.53
2023-01-28T08:06:52.293Z,102827.81
2023-01-28T08:09:21.476Z,102835.19
2023-01-28T08:11:49.199Z,102823.69
2023-01-28T08:14:16.926Z,102818.88
2023-01-28T08:16:44.638Z,102828.81
2023-01-28T08:19:12.628Z,102826.53
2023-01-28T08:21:40.391Z,102819.75
2023-01-28T08:24:08.669Z,102833.13
2023-01-28T08:26:37.969Z,102837.75
2023-01-28T08:29:07.846Z,102836.84
2023-01-28T08:31:35.758Z,102839.56
2023-01-28T08:34:03.523Z,102863.59
2023-01-28T08:36:31.214Z,102860.94
2023-01-28T08:38:59.100Z,102862.81
2023-01-28T08:41:26.896Z,102868.03
2023-01-28T08:43:56.070Z,102883.13
2023-01-28T08:46:23.853Z,102877.19
2023-01-28T08:48:51.793Z,102885.28
2023-01-28T08:51:19.512Z,102901.53
2023-01-28T08:53:50.000Z,102899.03
2023-01-28T08:56:17.696Z,102891.03
2023-01-28T08:58:45.630Z,102898.09
2023-01-28T09:01:14.747Z,102902.28
2023-01-28T09:03:42.516Z,102905.63
2023-01-28T09:06:10.315Z,102902.50
2023-01-28T09:08:38.063Z,102910.41
2023-01-28T09:11:06.037Z,102905.38
2023-01-28T09:13:33.793Z,102906.41
2023-01-28T09:16:01.684Z,102908.78
2023-01-28T09:18:30.902Z,102907.28
2023-01-28T09:20:58.628Z,102910.50
2023-01-28T09:23:26.448Z,102912.50
2023-01-28T09:26:01.427Z,102915.22
2023-01-28T09:28:29.929Z,102924.91
2023-01-28T09:31:03.072Z,102920.34
2023-01-28T09:33:32.769Z,102918.56
2023-01-28T09:36:01.735Z,102922.16
2023-01-28T09:38:30.701Z,102931.47
2023-01-28T09:41:02.316Z,102929.69
2023-01-28T09:43:45.883Z,102926.47
2023-01-28T09:46:15.676Z,102928.34
2023-01-28T09:48:48.252Z,102922.34
2023-01-28T09:51:28.258Z,102924.72
2023-01-28T09:53:58.451Z,102933.72
2023-01-28T09:56:30.116Z,102928.34
2023-01-28T09:58:59.156Z,102925.63
2023-01-28T10:01:40.097Z,102932.28
2023-01-28T10:04:23.207Z,102934.03
2023-01-28T10:07:02.136Z,102920.88
2023-01-28T10:09:38.311Z,102924.84
2023-01-28T10:12:17.285Z,102922.28
2023-01-28T10:14:57.874Z,102910.38
2023-01-28T10:17:30.019Z,102896.91
2023-01-28T10:20:04.419Z,102914.75
2023-01-28T10:22:36.611Z,102917.28
2023-01-28T10:25:09.140Z,102908.50
2023-01-28T10:27:38.334Z,102915.00
2023-01-28T10:30:19.413Z,102921.28
2023-01-28T10:32:52.712Z,102922.44
2023-01-28T10:35:22.705Z,102917.72
2023-01-28T10:37:51.232Z,102918.28
2023-01-28T10:40:19.804Z,102923.03
2023-01-28T10:42:47.532Z,102925.09
2023-01-28T10:45:21.526Z,102921.19
2023-01-28T10:47:54.584Z,102935.38
2023-01-28T10:50:26.512Z,102944.06
2023-01-28T10:52:55.939Z,102934.03
2023-01-28T10:55:25.490Z,102933.97
2023-01-28T10:57:54.638Z,102940.66
2023-01-28T11:00:28.057Z,102934.25
2023-01-28T11:02:58.873Z,102938.81
2023-01-28T11:05:30.494Z,102950.63
2023-01-28T11:08:06.252Z,102953.34
2023-01-28T11:10:35.844Z,102948.19
2023-01-28T11:13:05.822Z,102943.22
2023-01-28T11:15:34.487Z,102947.72
2023-01-28T11:18:06.132Z,102944.53
2023-01-28T11:20:42.225Z,102947.06
2023-01-28T11:23:20.640Z,102940.34
2023-01-28T11:25:48.504Z,102943.47
2023-01-28T11:28:21.797Z,102941.03
2023-01-28T11:30:53.731Z,102937.53
2023-01-28T11:33:24.614Z,102946.53
2023-01-28T11:35:58.325Z,102941.41
2023-01-28T11:38:27.303Z,102936.84
2023-01-28T11:40:56.703Z,102944.78
2023-01-28T11:43:26.881Z,102946.44
2023-01-28T11:46:05.210Z,102934.38
2023-01-28T11:48:42.951Z,102935.66
2023-01-28T11:51:24.780Z,102930.84
2023-01-28T11:54:18.728Z,102911.88
2023-01-28T11:57:03.559Z,102900.25
2023-01-28T11:59:43.833Z,102896.84
2023-01-28T12:02:29.703Z,102898.13
2023-01-28T12:05:15.913Z,102896.91
2023-01-28T12:07:54.221Z,102882.69
2023-01-28T12:10:30.281Z,102885.34
2023-01-28T12:13:22.569Z,102878.47
2023-01-28T12:16:15.341Z,102884.31
2023-01-28T12:19:10.455Z,102893.59
2023-01-28T12:21:49.403Z,102884.44
2023-01-28T12:24:36.574Z,102870.56
2023-01-28T12:27:11.764Z,102867.56
2023-01-28T12:29:47.705Z,102845.59
2023-01-28T12:32:39.194Z,102831.41
2023-01-28T12:35:23.379Z,102807.19
2023-01-28T12:38:03.068Z,102798.63
2023-01-28T12:40:56.855Z,102787.41
2023-01-28T12:43:39.738Z,102786.22
2023-01-28T12:46:14.119Z,102787.84
2023-01-28T12:48:47.251Z,102787.19
2023-01-28T12:51:18.145Z,102801.66
2023-01-28T12:53:53.648Z,102817.91
2023-01-28T12:56:28.911Z,102817.56
2023-01-28T12:58:59.901Z,102831.03
2023-01-28T13:01:36.259Z,102839.84
2023-01-28T13:04:10.395Z,102828.03
2023-01-28T13:06:45.727Z,102816.09
2023-01-28T13:09:18.703Z,102827.75
2023-01-28T13:11:49.413Z,102830.91
2023-01-28T13:14:17.985Z,102823.72
2023-01-28T13:16:45.787Z,102824.81
2023-01-28T13:19:24.750Z,102815.53
2023-01-28T13:21:52.623Z,102827.88
2023-01-28T13:24:24.175Z,102836.00
2023-01-28T13:26:55.863Z,102841.63
2023-01-28T13:29:31.275Z,102853.63
2023-01-28T13:32:01.312Z,102848.34
2023-01-28T13:34:37.796Z,102824.84
2023-01-28T13:37:17.651Z,102825.16
2023-01-28T13:39:50.814Z,102826.03
2023-01-28T13:42:28.805Z,102835.75
2023-01-28T13:44:57.239Z,102841.47
2023-01-28T13:47:30.901Z,102834.47
2023-01-28T13:50:04.527Z,102842.38
2023-01-28T13:52:35.248Z,102840.41
2023-01-28T13:55:07.478Z,102835.94
2023-01-28T13:58:16.841Z,102844.75
2023-01-28T14:01:09.357Z,102840.25
2023-01-28T14:04:09.323Z,102844.19
2023-01-28T14:06:54.952Z,102823.19
2023-01-28T14:09:49.426Z,102818.91
2023-01-28T14:12:39.116Z,102812.53
2023-01-28T14:15:52.312Z,102797.69
2023-01-28T14:18:27.795Z,102782.72
2023-01-28T14:20:58.288Z,102782.72
2023-01-28T14:23:26.824Z,102780.97
2023-01-28T14:26:08.488Z,102786.16
2023-01-28T14:28:45.342Z,102776.28
2023-01-28T14:31:19.420Z,102784.13
2023-01-28T14:33:48.785Z,102786.75
2023-01-28T14:36:16.702Z,102779.00
2023-01-28T14:38:46.055Z,102769.41
2023-01-28T14:41:24.570Z,102772.22
2023-01-28T14:43:54.095Z,102765.94
2023-01-28T14:46:32.139Z,102777.41
2023-01-28T14:49:17.267Z,102780.00
2023-01-28T14:52:17.266Z,102780.81
2023-01-28T14:55:01.455Z,102784.53
2023-01-28T14:57:41.512Z,102779.41
2023-01-28T15:00:22.415Z,102792.47
2023-01-28T15:02:50.435Z,102795.84
2023-01-28T15:05:22.073Z,102793.06
2023-01-28T15:07:50.800Z,102794.38
2023-01-28T15:10:22.199Z,102796.13
2023-01-28T15:12:54.376Z,102805.03
2023-01-28T15:15:30.454Z,102816.34
2023-01-28T15:18:03.385Z,102822.31
2023-01-28T15:20:33.320Z,102832.31
2023-01-28T15:23:02.596Z,102835.28
2023-01-28T15:25:31.234Z,102839.31
2023-01-28T15:28:01.723Z,102840.47
2023-01-28T15:30:31.517Z,102842.38
2023-01-28T15:33:05.433Z,102832.47
2023-01-28T15:35:36.802Z,102846.47
2023-01-28T15:38:05.575Z,102857.38
2023-01-28T15:40:43.330Z,102854.78
2023-01-28T15:43:19.620Z,102855.59
2023-01-28T15:45:49.081Z,102848.69
2023-01-28T15:48:17.492Z,102854.88
2023-01-28T15:50:46.976Z,102860.41
2023-01-28T15:53:15.810Z,102856.06
2023-01-28T15:55:45.359Z,102852.75
2023-01-28T15:58:29.507Z,102849.28
2023-01-28T16:01:05.600Z,102855.13
2023-01-28T16:03:34.273Z,102862.06
2023-01-28T16:06:08.545Z,102877.75
2023-01-28T16:08:41.858Z,102881.41
2023-01-28T16:11:10.658Z,102879.41
2023-01-28T16:13:44.050Z,102882.16
2023-01-28T16:16:12.714Z,102881.97
2023-01-28T16:18:43.371Z,102882.53
2023-01-28T16:21:13.679Z,102882.53
2023-01-28T16:23:41.535Z,102882.53
2023-01-28T16:26:23.024Z,102877.97
2023-01-28T16:28:50.727Z,102883.97
2023-01-28T16:31:19.015Z,102891.91
2023-01-28T16:33:47.053Z,102888.44
2023-01-28T16:36:19.195Z,102890.91
2023-01-28T16:38:47.289Z,102897.81
2023-01-28T16:41:20.982Z,102896.84
2023-01-28T16:43:48.677Z,102894.03
2023-01-28T16:46:16.428Z,102896.44
2023-01-28T16:48:44.147Z,102891.94
2023-01-28T16:51:18.548Z,102882.00
2023-01-28T16:53:47.826Z,102879.47
2023-01-28T16:56:30.689Z,102879.38
2023-01-28T16:59:04.876Z,102882.81
2023-01-28T17:01:32.549Z,102884.47
2023-01-28T17:04:00.265Z,102883.91
2023-01-28T17:06:29.500Z,102885.25
2023-01-28T17:08:57.185Z,102887.09
2023-01-28T17:11:27.915Z,102871.19
2023-01-28T17:13:55.616Z,102876.47
2023-01-28T17:16:23.326Z,102862.38
2023-01-28T17:18:56.055Z,102855.34
2023-01-28T17:21:23.958Z,102850.88
2023-01-28T17:23:53.189Z,102852.19
2023-01-28T17:26:20.953Z,102862.53
2023-01-28T17:28:53.475Z,102864.00
2023-01-28T17:31:21.509Z,102871.81
2023-01-28T17:33:53.809Z,102874.38
2023-01-28T17:36:21.527Z,102870.72
2023-01-28T17:38:49.504Z,102895.28
2023-01-28T17:41:18.989Z,102894.16
2023-01-28T17:43:51.959Z,102885.06
2023-01-28T17:46:20.491Z,102892.78
2023-01-28T17:48:48.362Z,102904.97
2023-01-28T17:51:17.176Z,102913.69
2023-01-28T17:53:46.818Z,102907.34
2023-01-28T17:56:20.534Z,102909.03
2023-01-28T17:58:52.631Z,102916.06
2023-01-28T18:01:20.869Z,102925.56
2023-01-28T18:03:49.159Z,102916.69
2023-01-28T18:06:17.724Z,102921.13
2023-01-28T18:08:46.212Z,102918.31
2023-01-28T18:11:15.981Z,102919.13
2023-01-28T18:13:46.086Z,102907.56
2023-01-28T18:16:16.268Z,102909.09
2023-01-28T18:18:44.326Z,102919.38
2023-01-28T18:21:42.984Z,102921.91
2023-01-28T18:24:18.845Z,102927.91
2023-01-28T18:26:46.654Z,102933.88
2023-01-28T18:29:20.274Z,102927.81
2023-01-28T18:31:48.897Z,102937.31
2023-01-28T18:34:18.562Z,102936.22
2023-01-28T18:36:46.315Z,102941.50
2023-01-28T18:39:14.676Z,102945.84
2023-01-28T18:41:42.424Z,102951.00
2023-01-28T18:44:11.202Z,102950.13
2023-01-28T18:46:40.550Z,102942.81
2023-01-28T18:49:08.302Z,102943.53
2023-01-28T18:51:36.041Z,102948.69
2023-01-28T18:54:06.172Z,102946.91
2023-01-28T18:56:35.054Z,102945.78
2023-01-28T18:59:04.807Z,102941.41
2023-01-28T19:01:35.419Z,102938.69
2023-01-28T19:04:04.688Z,102939.53
2023-01-28T19:06:33.362Z,102953.31
2023-01-28T19:09:04.756Z,102959.19
2023-01-28T19:11:32.773Z,102944.09
2023-01-28T19:14:00.659Z,102944.78
2023-01-28T19:16:28.806Z,102949.97
2023-01-28T19:18:58.970Z,102948.97
2023-01-28T19:21:28.910Z,102947.13
2023-01-28T19:23:58.463Z,102946.75
2023-01-28T19:26:27.883Z,102955.97
2023-01-28T19:28:56.231Z,102953.94
2023-01-28T19:31:25.495Z,102948.66
2023-01-28T19:33:55.737Z,102944.53
2023-01-28T19:36:23.765Z,102946.31
2023-01-28T19:38:53.100Z,102947.25
2023-01-28T19:41:20.812Z,102953.41
2023-01-28T19:43:49.349Z,102950.88
2023-01-28T19:46:18.186Z,102956.84
2023-01-28T19:48:46.302Z,102966.38
2023-01-28T19:51:15.840Z,102970.66
2023-01-28T19:53:44.470Z,102977.53
2023-01-28T19:56:14.846Z,102982.78
2023-01-28T19:58:44.493Z,102985.41
2023-01-28T20:01:14.098Z,102980.16
2023-01-28T20:03:41.904Z,102973.16
2023-01-28T20:06:12.513Z,102974.88
2023-01-28T20:08:40.277Z,102975.00
2023-01-28T20:11:09.769Z,102963.66
2023-01-28T20:13:40.391Z,102969.72
2023-01-28T20:16:10.517Z,102960.94
2023-01-28T20:18:38.417Z,102958.09
2023-01-28T20:21:06.283Z,102964.16
2023-01-28T20:23:34.115Z,102949.97
2023-01-28T20:26:02.296Z,102953.44
2023-01-28T20:28:30.181Z,102942.72
2023-01-28T20:31:05.969Z,102948.69
2023-01-28T20:33:34.048Z,102955.63
2023-01-28T20:36:03.003Z,102946.75
2023-01-28T20:38:30.864Z,102942.09
2023-01-28T20:40:58.554Z,102944.63
2023-01-28T20:43:27.865Z,102942.78
2023-01-28T20:46:04.736Z,102937.31
2023-01-28T20:48:33.361Z,102933.69
2023-01-28T20:51:06.471Z,102928.34
2023-01-28T20:53:34.193Z,102927.09
2023-01-28T20:56:02.305Z,102927.81
2023-01-28T20:58:30.377Z,102917.38
2023-01-28T21:00:58.124Z,102930.53
2023-01-28T21:03:27.531Z,102919.91
2023-01-28T21:05:55.251Z,102916.19
2023-01-28T21:08:23.021Z,102912.63
2023-01-28T21:10:50.759Z,102914.25
2023-01-28T21:13:18.761Z,102909.69
2023-01-28T21:15:54.148Z,102908.88
2023-01-28T21:18:22.440Z,102910.47
2023-01-28T21:20:51.613Z,102908.34
2023-01-28T21:23:19.347Z,102909.28
2023-01-28T21:25:47.763Z,102910.09
2023-01-28T21:28:15.488Z,102902.91
2023-01-28T21:30:43.474Z,102901.09
2023-01-28T21:33:11.293Z,102895.00
2023-01-28T21:35:39.741Z,102902.78
2023-01-28T21:38:11.446Z,102904.44
2023-01-28T21:40:46.770Z,102899.16
2023-01-28T21:43:20.065Z,102900.66
2023-01-28T21:45:55.164Z,102904.81
2023-01-28T21:48:28.208Z,102905.63
2023-01-28T21:51:14.156Z,102912.59
2023-01-28T21:53:44.641Z,102918.38
2023-01-28T21:56:12.958Z,102925.13
2023-01-28T21:58:58.813Z,102924.13
2023-01-28T22:01:28.670Z,102924.22
2023-01-28T22:03:58.196Z,102916.31
2023-01-28T22:06:26.361Z,102922.47
2023-01-28T22:08:55.675Z,102923.19
2023-01-28T22:11:23.413Z,102928.56
2023-01-28T22:13:51.136Z,102921.47
2023-01-28T22:16:19.259Z,102924.13
2023-01-28T22:18:48.976Z,102934.53
2023-01-28T22:21:16.926Z,102931.78
2023-01-28T22:23:44.636Z,102936.72
2023-01-28T22:26:15.347Z,102933.28
2023-01-28T22:28:48.503Z,102944.50
2023-01-28T22:31:17.854Z,102933.88
2023-01-28T22:33:47.245Z,102931.25
2023-01-28T22:36:16.547Z,102932.88
2023-01-28T22:38:46.265Z,102926.81
2023-01-28T22:41:19.115Z,102933.88
2023-01-28T22:43:47.828Z,102932.97
2023-01-28T22:46:16.732Z,102931.16
2023-01-28T22:48:44.517Z,102923.25
2023-01-28T22:51:16.430Z,102926.69
2023-01-28T22:53:44.448Z,102928.31
2023-01-28T22:56:12.470Z,102923.94
2023-01-28T22:58:41.806Z,102921.22
2023-01-28T23:01:09.625Z,102913.34
2023-01-28T23:03:37.729Z,102909.00
2023-01-28T23:06:07.572Z,102916.91
2023-01-28T23:08:35.306Z,102906.66
2023-01-28T23:11:15.318Z,102900.38
2023-01-28T23:14:03.349Z,102903.69
2023-01-28T23:16:49.629Z,102901.91
2023-01-28T23:19:35.418Z,102905.41
2023-01-28T23:22:21.116Z,102899.16
2023-01-28T23:24:48.934Z,102906.81
2023-01-28T23:27:16.789Z,102900.66
2023-01-28T23:29:46.456Z,102897.13
2023-01-28T23:32:14.236Z,102901.13
2023-01-28T23:34:44.507Z,102897.50
2023-01-28T23:37:13.930Z,102890.53
2023-01-28T23:39:42.617Z,102879.00
2023-01-28T23:42:12.397Z,102877.19
2023-01-28T23:44:40.144Z,102875.25
2023-01-28T23:47:10.075Z,102868.16
2023-01-28T23:49:38.377Z,102866.47
2023-01-28T23:52:07.257Z,102863.84
2023-01-28T23:54:35.437Z,102870.78
2023-01-28T23:57:03.868Z,102871.72
2023-01-28T23:59:31.577Z,102874.22
